Time;durP1;ratioP1;P1;durP2;ratioP2;P2;SDS_P1;SDS_P2;PMS_P1;PMS_P2;Temp;Humidity;BMP_temperature;BMP_pressure;BME280_temperature;BME280_humidity;BME280_pressure;Samples;Min_cycle;Max_cycle;Signal;HPM_P1;HPM_P2
2021/12/14 00:00:33;;;;;;;;;;;;;;;2.74;64.75;95349.94;5047388;28;19965;-77
2021/12/14 00:02:59;;;;;;;;;;;;;;;2.78;64.39;95361.47;5083111;28;19982;-78
2021/12/14 00:05:25;;;;;;;;;;;;;;;2.82;64.49;95340.41;5076138;28;19916;-77
2021/12/14 00:07:50;;;;;;;;;;;;;;;2.84;64.08;95356.44;5064464;28;19916;-78
2021/12/14 00:13:12;;;;;;;;;;;;;;;2.84;63.93;95341.03;5057579;28;19920;-77
2021/12/14 00:15:38;;;;;;;;;;;;;;;2.91;63.40;95347.06;5081491;28;19920;-77
2021/12/14 00:18:04;;;;;;;;;;;;;;;2.91;63.58;95341.94;5081774;28;19926;-77
2021/12/14 00:20:35;;;;;;;;;;;;;;;2.91;63.50;95336.81;5083008;28;19978;-78
2021/12/14 00:25:28;;;;;;;;;;;;;;;2.90;63.36;95340.34;5063914;28;20003;-77
2021/12/14 00:27:53;;;;;;;;;;;;;;;2.77;63.56;95345.28;5083309;28;19974;-77
2021/12/14 00:30:19;;;;;;;;;;;;;;;2.72;63.75;95347.53;5064700;28;19924;-77
2021/12/14 00:32:44;;;;;;;;;;;;;;;2.74;64.00;95357.63;5083322;28;19916;-77
2021/12/14 00:35:13;;;;;;;;;;;;;;;2.74;64.07;95355.06;5083549;28;19920;-77
2021/12/14 00:37:40;;;;;;;;;;;;;;;2.78;63.78;95359.72;5065480;22;20355;-77
2021/12/14 00:40:11;;;;;;;;;;;;;;;2.76;64.02;95353.91;5063549;28;20340;-77
2021/12/14 00:42:36;;;;;;;;;;;;;;;2.71;64.29;95348.50;5064458;28;19916;-77
2021/12/14 00:45:01;;;;;;;;;;;;;;;2.71;64.08;95357.00;5061993;28;19922;-77
2021/12/14 00:47:29;;;;;;;;;;;;;;;2.67;64.38;95355.75;5062041;28;19920;-78
2021/12/14 00:49:55;;;;;;;;;;;;;;;2.66;64.51;95354.16;5062567;28;19932;-78
2021/12/14 00:52:20;;;;;;;;;;;;;;;2.67;64.74;95362.66;5061391;28;20537;-77
2021/12/14 00:54:45;;;;;;;;;;;;;;;2.69;64.48;95358.16;5059937;28;19975;-77
2021/12/14 00:57:11;;;;;;;;;;;;;;;2.69;64.33;95368.41;5061823;28;19921;-78
2021/12/14 00:59:39;;;;;;;;;;;;;;;2.70;64.52;95354.59;5078682;28;19986;-77
2021/12/14 01:02:08;;;;;;;;;;;;;;;2.70;64.29;95370.00;5062351;28;19920;-77
2021/12/14 01:04:36;;;;;;;;;;;;;;;2.72;64.05;95357.81;5061763;28;20487;-78
2021/12/14 01:07:01;;;;;;;;;;;;;;;2.78;63.78;95348.63;5064101;28;19928;-79
2021/12/14 01:09:28;;;;;;;;;;;;;;;2.79;64.06;95353.59;5079721;28;20402;-79
2021/12/14 01:11:56;;;;;;;;;;;;;;;2.79;64.26;95361.31;5071320;28;19943;-79
2021/12/14 01:14:30;;;;;;;;;;;;;;;2.81;64.06;95356.00;5067429;28;19987;-78
2021/12/14 01:17:10;;;;;;;;;;;;;;;2.77;63.99;95359.88;5055304;28;19926;-79
2021/12/14 01:19:37;;;;;;;;;;;;;;;2.75;63.93;95362.59;5062799;28;20296;-79
2021/12/14 01:27:10;;;;;;;;;;;;;;;2.78;64.25;95359.72;5064635;28;20418;-79
2021/12/14 01:29:36;;;;;;;;;;;;;;;2.72;64.48;95357.81;5061212;28;19947;-78
2021/12/14 01:32:02;;;;;;;;;;;;;;;2.67;64.51;95365.22;5062655;28;20384;-79
2021/12/14 01:34:31;;;;;;;;;;;;;;;2.58;65.28;95367.03;5079232;28;20304;-79
2021/12/14 01:36:58;;;;;;;;;;;;;;;2.62;64.96;95362.38;5062930;28;19921;-79
2021/12/14 01:39:47;;;;;;;;;;;;;;;2.60;64.74;95359.97;5061168;28;19927;-79
2021/12/14 01:42:09;;;;;;;;;;;;;;;2.59;64.63;95352.41;5062623;28;19928;-79
2021/12/14 01:44:36;;;;;;;;;;;;;;;2.57;65.40;95364.63;5062017;28;19921;-79
2021/12/14 01:47:09;;;;;;;;;;;;;;;2.62;65.28;95359.81;5064103;28;20368;-79
2021/12/14 01:49:34;;;;;;;;;;;;;;;2.70;65.21;95359.75;5063192;28;19921;-78
2021/12/14 01:52:04;;;;;;;;;;;;;;;2.76;65.48;95359.06;5062878;28;19948;-79
2021/12/14 01:54:32;;;;;;;;;;;;;;;2.84;64.59;95356.44;5061414;28;19917;-78
2021/12/14 01:56:57;;;;;;;;;;;;;;;2.86;64.85;95369.91;5060802;28;19974;-78
2021/12/14 01:59:27;;;;;;;;;;;;;;;2.90;64.20;95365.22;5060340;28;19921;-78
2021/12/14 02:01:57;;;;;;;;;;;;;;;2.94;64.36;95358.81;5061694;28;19916;-78
2021/12/14 02:04:23;;;;;;;;;;;;;;;2.96;64.41;95349.94;5060831;28;20285;-78
2021/12/14 02:06:53;;;;;;;;;;;;;;;2.97;64.60;95355.88;5060201;28;19927;-78
2021/12/14 02:09:18;;;;;;;;;;;;;;;3.03;63.92;95349.25;5062407;28;19944;-78
2021/12/14 02:11:52;;;;;;;;;;;;;;;3.06;63.82;95357.41;5077678;28;19967;-78
2021/12/14 02:14:17;;;;;;;;;;;;;;;3.10;63.62;95350.97;5062503;28;20452;-78
2021/12/14 02:16:42;;;;;;;;;;;;;;;3.13;63.79;95354.97;5061551;28;19920;-78
2021/12/14 02:19:10;;;;;;;;;;;;;;;3.14;63.52;95357.38;5063429;28;19987;-79
2021/12/14 02:21:35;;;;;;;;;;;;;;;3.06;64.01;95359.19;5063386;28;19917;-78
2021/12/14 02:24:01;;;;;;;;;;;;;;;3.07;63.96;95356.44;5063449;28;19928;-79
2021/12/14 02:26:29;;;;;;;;;;;;;;;3.15;63.71;95358.16;5069076;28;20396;-78
2021/12/14 02:28:55;;;;;;;;;;;;;;;3.12;63.28;95356.75;5062830;28;20303;-79
2021/12/14 02:31:20;;;;;;;;;;;;;;;3.11;64.06;95357.72;5062162;28;19920;-79
2021/12/14 02:33:47;;;;;;;;;;;;;;;3.11;64.38;95360.28;5063712;28;19917;-79
2021/12/14 02:36:13;;;;;;;;;;;;;;;3.14;64.24;95361.72;5062420;28;19917;-80
2021/12/14 02:38:39;;;;;;;;;;;;;;;3.15;64.00;95360.75;5064384;28;19927;-79
2021/12/14 02:41:05;;;;;;;;;;;;;;;3.17;64.23;95362.16;5064307;28;19955;-79
2021/12/14 02:43:33;;;;;;;;;;;;;;;3.18;64.05;95357.81;5062474;28;19913;-79
2021/12/14 02:46:03;;;;;;;;;;;;;;;3.13;63.71;95357.53;5063000;28;20295;-78
2021/12/14 02:48:29;;;;;;;;;;;;;;;3.12;65.09;95364.44;5063128;28;19916;-78
2021/12/14 02:50:54;;;;;;;;;;;;;;;3.08;64.68;95363.19;5063230;28;19917;-78
2021/12/14 02:53:21;;;;;;;;;;;;;;;2.97;64.54;95356.69;5063412;28;20015;-78
2021/12/14 02:55:47;;;;;;;;;;;;;;;2.99;64.62;95365.03;5061482;28;19963;-78
2021/12/14 02:58:12;;;;;;;;;;;;;;;2.98;65.29;95376.28;5063454;28;20405;-79
2021/12/14 03:00:39;;;;;;;;;;;;;;;3.00;64.50;95370.94;5062473;28;19916;-78
2021/12/14 03:03:05;;;;;;;;;;;;;;;3.04;64.74;95368.84;5064450;28;19944;-78
2021/12/14 03:05:31;;;;;;;;;;;;;;;3.06;65.14;95372.03;5064409;28;19970;-79
2021/12/14 03:08:16;;;;;;;;;;;;;;;3.10;64.79;95370.75;5066245;28;19924;-79
2021/12/14 03:11:10;;;;;;;;;;;;;;;3.12;64.31;95369.59;5077860;28;19924;-79
2021/12/14 03:13:33;;;;;;;;;;;;;;;3.10;64.19;95373.31;5079016;28;19925;-79
2021/12/14 03:15:58;;;;;;;;;;;;;;;3.14;64.45;95382.25;5076257;28;19924;-79
2021/12/14 03:21:00;;;;;;;;;;;;;;;3.15;63.87;95383.88;5015782;28;20455;-79
2021/12/14 03:23:47;;;;;;;;;;;;;;;3.18;64.65;95383.50;5016643;28;19939;-78
2021/12/14 03:26:13;;;;;;;;;;;;;;;3.13;64.47;95376.31;5016587;28;19921;-78
2021/12/14 03:28:39;;;;;;;;;;;;;;;3.18;65.25;95373.22;5008230;28;20357;-78
2021/12/14 03:31:04;;;;;;;;;;;;;;;3.14;64.23;95371.97;5003215;28;19928;-78
2021/12/14 03:33:33;;;;;;;;;;;;;;;3.09;65.03;95374.25;5020583;28;19917;-78
2021/12/14 03:35:59;;;;;;;;;;;;;;;2.99;65.51;95379.63;4997379;28;20089;-78
2021/12/14 03:38:26;;;;;;;;;;;;;;;2.97;65.65;95379.81;5014543;28;19917;-78
2021/12/14 03:40:56;;;;;;;;;;;;;;;2.95;65.76;95376.63;5002825;28;19921;-77
2021/12/14 03:43:22;;;;;;;;;;;;;;;2.93;65.16;95370.84;4994702;28;20368;-78
2021/12/14 03:45:47;;;;;;;;;;;;;;;2.88;66.48;95378.25;5003104;28;19917;-78
2021/12/14 03:48:12;;;;;;;;;;;;;;;2.85;67.21;95381.16;4996464;28;19976;-78
2021/12/14 03:50:41;;;;;;;;;;;;;;;2.80;66.12;95375.75;4996007;28;19917;-78
2021/12/14 03:53:07;;;;;;;;;;;;;;;2.78;67.32;95382.81;5036945;22;20847;-80
2021/12/14 03:55:34;;;;;;;;;;;;;;;2.74;66.86;95386.66;5099526;28;19994;-77
2021/12/14 03:57:59;;;;;;;;;;;;;;;2.78;67.81;95390.53;5101933;28;20367;-77
2021/12/14 04:00:27;;;;;;;;;;;;;;;2.77;67.87;95394.06;5085059;28;19919;-77
2021/12/14 04:02:53;;;;;;;;;;;;;;;2.77;67.53;95385.56;5085438;28;19920;-78
2021/12/14 04:05:20;;;;;;;;;;;;;;;2.70;67.28;95393.13;5083119;28;20067;-77
2021/12/14 04:07:45;;;;;;;;;;;;;;;2.77;67.53;95391.50;5084637;28;20345;-78
2021/12/14 04:10:12;;;;;;;;;;;;;;;2.71;67.52;95399.84;5104697;28;19998;-78
2021/12/14 04:12:37;;;;;;;;;;;;;;;2.76;67.12;95397.56;5069411;28;20363;-77
2021/12/14 04:15:02;;;;;;;;;;;;;;;2.78;67.92;95398.22;5103929;28;19927;-78
2021/12/14 04:17:29;;;;;;;;;;;;;;;2.85;67.99;95403.47;5105858;28;20303;-78
2021/12/14 04:19:54;;;;;;;;;;;;;;;2.86;67.29;95399.94;5084935;28;20469;-78
2021/12/14 04:22:24;;;;;;;;;;;;;;;2.86;67.53;95403.31;5084487;28;20010;-78
2021/12/14 04:24:51;;;;;;;;;;;;;;;2.87;67.42;95404.09;5102420;28;20028;-78
2021/12/14 04:27:17;;;;;;;;;;;;;;;2.79;68.00;95406.72;5085682;28;19920;-77
2021/12/14 04:29:43;;;;;;;;;;;;;;;2.89;67.63;95413.22;5083210;28;20399;-78
2021/12/14 04:32:09;;;;;;;;;;;;;;;2.94;68.14;95403.28;5086556;28;19916;-81
2021/12/14 04:34:34;;;;;;;;;;;;;;;2.90;67.91;95411.47;5085742;28;19965;-77
2021/12/14 04:37:03;;;;;;;;;;;;;;;2.92;66.83;95412.88;5101402;28;20668;-77
2021/12/14 04:39:36;;;;;;;;;;;;;;;2.98;67.75;95414.81;5101027;28;19916;-77
2021/12/14 04:53:11;;;;;;;;;;;;;;;3.07;67.62;95412.16;5086707;28;19964;-77
2021/12/14 04:55:37;;;;;;;;;;;;;;;3.10;67.35;95409.28;5100892;28;19915;-77
2021/12/14 04:58:02;;;;;;;;;;;;;;;3.14;66.95;95413.09;5083661;28;19916;-78
2021/12/14 05:00:28;;;;;;;;;;;;;;;3.18;66.75;95406.63;5068888;28;20410;-79
2021/12/14 05:02:56;;;;;;;;;;;;;;;3.18;66.01;95419.50;5086893;28;19916;-78
2021/12/14 05:05:27;;;;;;;;;;;;;;;3.15;66.44;95420.63;5102841;28;19939;-78
2021/12/14 05:10:41;;;;;;;;;;;;;;;3.17;65.87;95417.88;5104243;28;19964;-78
2021/12/14 05:13:06;;;;;;;;;;;;;;;3.13;65.70;95421.78;5085843;28;19923;-80
2021/12/14 05:15:32;;;;;;;;;;;;;;;3.16;66.00;95421.44;5085695;28;19916;-78
2021/12/14 05:17:57;;;;;;;;;;;;;;;3.21;65.33;95419.13;5068036;28;19999;-79
2021/12/14 05:20:23;;;;;;;;;;;;;;;3.15;65.91;95424.97;5069566;28;19962;-84
2021/12/14 05:22:48;;;;;;;;;;;;;;;3.19;65.77;95426.22;5085521;28;20427;-78
2021/12/14 05:25:21;;;;;;;;;;;;;;;3.24;65.62;95424.72;5101992;28;19915;-77
2021/12/14 05:27:50;;;;;;;;;;;;;;;3.28;65.49;95430.34;5083507;28;20006;-79
2021/12/14 05:30:18;;;;;;;;;;;;;;;3.29;65.43;95427.63;5084689;28;19931;-81
2021/12/14 05:32:44;;;;;;;;;;;;;;;3.28;65.55;95425.22;5102259;28;19923;-79
2021/12/14 05:35:10;;;;;;;;;;;;;;;3.24;65.11;95423.94;5085443;28;20379;-78
2021/12/14 05:37:43;;;;;;;;;;;;;;;3.26;65.23;95424.59;5083056;28;20066;-79
2021/12/14 05:40:17;;;;;;;;;;;;;;;3.29;64.95;95421.66;5090141;28;19998;-78
2021/12/14 05:45:27;;;;;;;;;;;;;;;3.19;65.12;95426.22;5103184;28;19922;-78
2021/12/14 05:47:53;;;;;;;;;;;;;;;3.18;65.13;95429.78;5082555;28;19924;-78
2021/12/14 05:50:20;;;;;;;;;;;;;;;3.17;65.02;95428.16;5067144;28;19923;-78
2021/12/14 05:52:45;;;;;;;;;;;;;;;3.16;64.92;95431.72;5101608;28;19923;-78
2021/12/14 05:55:12;;;;;;;;;;;;;;;3.15;65.20;95442.97;5106310;28;20010;-80
2021/12/14 05:57:37;;;;;;;;;;;;;;;3.15;65.48;95445.53;5088393;28;19979;-80
2021/12/14 06:00:03;;;;;;;;;;;;;;;3.16;65.36;95447.94;5088969;28;20398;-79
2021/12/14 06:02:31;;;;;;;;;;;;;;;3.17;65.66;95453.88;5083713;28;19923;-77
2021/12/14 06:04:56;;;;;;;;;;;;;;;3.21;65.69;95461.06;5099670;28;19969;-77
2021/12/14 06:07:22;;;;;;;;;;;;;;;3.25;64.88;95457.19;5102184;28;20080;-77
2021/12/14 06:09:49;;;;;;;;;;;;;;;3.28;64.55;95461.19;5082639;28;19923;-77
2021/12/14 06:12:14;;;;;;;;;;;;;;;3.29;64.35;95460.22;5066097;28;19919;-77
2021/12/14 06:14:44;;;;;;;;;;;;;;;3.25;65.19;95461.50;5100328;28;19916;-77
2021/12/14 06:17:09;;;;;;;;;;;;;;;3.27;64.96;95462.16;5082780;28;19916;-77
2021/12/14 06:19:38;;;;;;;;;;;;;;;3.32;64.97;95457.31;5078427;28;20456;-77
2021/12/14 06:22:11;;;;;;;;;;;;;;;3.39;65.00;95452.28;5098915;28;19919;-78
2021/12/14 06:24:44;;;;;;;;;;;;;;;3.38;64.31;95455.81;5097550;28;20009;-77
2021/12/14 06:27:10;;;;;;;;;;;;;;;3.34;64.59;95455.38;5081300;28;19958;-78
2021/12/14 06:29:47;;;;;;;;;;;;;;;3.41;64.62;95461.41;5081884;28;20014;-78
2021/12/14 06:32:16;;;;;;;;;;;;;;;3.45;63.91;95464.47;5079168;28;19926;-77
2021/12/14 06:34:48;;;;;;;;;;;;;;;3.42;63.82;95468.19;5065234;28;20320;-77
2021/12/14 06:37:23;;;;;;;;;;;;;;;3.44;63.59;95471.38;5102555;28;19927;-79
2021/12/14 06:40:07;;;;;;;;;;;;;;;3.53;63.54;95472.09;5100221;28;20260;-78
2021/12/14 06:42:32;;;;;;;;;;;;;;;3.48;64.42;95475.19;5081819;28;19926;-77
2021/12/14 06:45:36;;;;;;;;;;;;;;;3.51;63.90;95472.28;5087623;28;20032;-78
2021/12/14 06:48:04;;;;;;;;;;;;;;;3.45;63.61;95478.13;5060951;28;19921;-78
2021/12/14 06:50:32;;;;;;;;;;;;;;;3.51;63.94;95477.41;5057108;28;19920;-78
2021/12/14 06:52:59;;;;;;;;;;;;;;;3.54;63.59;95487.34;5067732;28;20014;-78
2021/12/14 06:55:24;;;;;;;;;;;;;;;3.56;63.30;95484.59;5088096;28;19947;-78
2021/12/14 06:57:49;;;;;;;;;;;;;;;3.61;63.86;95487.47;5114372;22;19956;-78
2021/12/14 07:00:15;;;;;;;;;;;;;;;3.60;62.80;95496.16;5035690;28;19938;-78
2021/12/14 07:02:44;;;;;;;;;;;;;;;3.67;63.36;95493.69;5039578;28;19980;-78
2021/12/14 07:05:16;;;;;;;;;;;;;;;3.64;63.06;95494.06;5037735;28;19924;-79
2021/12/14 07:07:41;;;;;;;;;;;;;;;3.68;64.25;95492.72;5029145;28;19921;-78
2021/12/14 07:10:06;;;;;;;;;;;;;;;3.68;63.68;95498.66;5027508;28;19920;-78
2021/12/14 07:12:33;;;;;;;;;;;;;;;3.66;64.03;95494.69;5050887;23;20975;-77
2021/12/14 07:15:00;;;;;;;;;;;;;;;3.67;65.56;95504.00;5061714;28;20006;-77
2021/12/14 07:17:29;;;;;;;;;;;;;;;3.65;64.51;95508.50;5063639;28;19966;-77
2021/12/14 07:20:03;;;;;;;;;;;;;;;3.66;64.93;95508.34;5062716;28;20390;-78
2021/12/14 07:22:45;;;;;;;;;;;;;;;3.67;64.45;95511.69;5043878;28;19959;-77
2021/12/14 07:25:12;;;;;;;;;;;;;;;3.65;64.46;95505.94;5044640;28;19969;-77
2021/12/14 07:27:38;;;;;;;;;;;;;;;3.68;65.90;95513.31;5059871;28;19996;-77
2021/12/14 07:30:14;;;;;;;;;;;;;;;3.70;64.95;95511.34;5166013;22;19920;-77
2021/12/14 07:32:40;;;;;;;;;;;;;;;3.75;65.55;95519.38;5048020;28;20297;-77
2021/12/14 07:35:34;;;;;;;;;;;;;;;3.77;65.06;95517.44;5042579;28;19925;-77
2021/12/14 07:38:16;;;;;;;;;;;;;;;3.85;64.87;95514.78;5031420;28;19964;-77
2021/12/14 07:40:43;;;;;;;;;;;;;;;3.85;65.17;95519.94;5024445;28;19924;-77
2021/12/14 07:43:11;;;;;;;;;;;;;;;3.87;64.66;95516.19;5042375;28;19924;-78
2021/12/14 07:45:36;;;;;;;;;;;;;;;3.91;65.46;95514.91;5040790;28;19917;-77
2021/12/14 07:48:02;;;;;;;;;;;;;;;3.88;64.92;95514.44;5040449;28;19917;-78
2021/12/14 07:50:44;;;;;;;;;;;;;;;3.87;65.15;95523.91;5039691;28;20367;-78
2021/12/14 07:53:09;;;;;;;;;;;;;;;3.90;65.00;95512.47;5039654;28;20301;-77
2021/12/14 07:55:39;;;;;;;;;;;;;;;3.87;65.60;95525.69;5041488;28;19917;-77
2021/12/14 07:58:05;;;;;;;;;;;;;;;3.89;64.99;95521.97;5044488;28;19921;-78
2021/12/14 08:00:35;;;;;;;;;;;;;;;3.96;65.72;95521.31;5043885;28;20453;-78
2021/12/14 08:03:01;;;;;;;;;;;;;;;3.93;65.58;95532.75;5023679;28;19923;-77
2021/12/14 08:05:34;;;;;;;;;;;;;;;4.00;65.36;95528.50;5038613;28;19925;-77
2021/12/14 08:08:16;;;;;;;;;;;;;;;4.02;66.14;95531.69;5057450;28;19921;-77
2021/12/14 08:11:28;;;;;;;;;;;;;;;4.10;66.22;95539.34;5049762;28;19917;-78
2021/12/14 08:13:54;;;;;;;;;;;;;;;4.26;64.91;95541.00;5045598;28;19967;-77
2021/12/14 08:16:19;;;;;;;;;;;;;;;4.28;64.61;95535.66;5056606;28;20403;-77
2021/12/14 08:18:45;;;;;;;;;;;;;;;4.34;65.07;95542.69;5039180;28;20383;-77
2021/12/14 08:21:11;;;;;;;;;;;;;;;4.37;64.37;95535.41;5023801;28;19916;-77
2021/12/14 08:23:38;;;;;;;;;;;;;;;4.39;64.88;95542.94;5039604;28;19952;-77
2021/12/14 08:26:06;;;;;;;;;;;;;;;4.48;64.75;95542.72;5024601;28;19928;-77
2021/12/14 08:28:32;;;;;;;;;;;;;;;4.53;64.59;95539.59;5059787;28;19927;-78
2021/12/14 08:30:58;;;;;;;;;;;;;;;4.57;64.48;95547.78;5062523;28;19965;-78
2021/12/14 08:33:24;;;;;;;;;;;;;;;4.59;64.75;95549.22;5045529;28;19955;-78
2021/12/14 08:35:50;;;;;;;;;;;;;;;4.60;64.28;95550.00;5027924;28;19916;-80
2021/12/14 08:38:16;;;;;;;;;;;;;;;4.63;64.46;95540.16;5044178;28;19925;-78
2021/12/14 08:40:43;;;;;;;;;;;;;;;4.71;63.99;95545.19;5044782;28;19956;-78
2021/12/14 08:43:20;;;;;;;;;;;;;;;4.62;65.45;95541.13;5043324;28;19924;-78
2021/12/14 08:45:48;;;;;;;;;;;;;;;4.72;63.60;95541.69;5044661;28;19921;-78
2021/12/14 08:48:21;;;;;;;;;;;;;;;4.69;63.34;95534.28;5051730;28;19913;-78
2021/12/14 08:50:53;;;;;;;;;;;;;;;4.58;63.95;95537.31;5044568;28;19924;-78
2021/12/14 08:53:19;;;;;;;;;;;;;;;4.66;64.47;95537.22;5044658;28;20011;-78
2021/12/14 08:55:45;;;;;;;;;;;;;;;4.66;64.16;95534.63;5027365;28;19959;-78
2021/12/14 08:58:10;;;;;;;;;;;;;;;4.63;64.79;95529.03;5044235;28;19913;-78
2021/12/14 09:00:37;;;;;;;;;;;;;;;4.69;63.15;95533.47;5044775;28;20511;-78
2021/12/14 09:03:03;;;;;;;;;;;;;;;4.68;63.79;95522.38;5053191;28;19923;-78
2021/12/14 09:05:33;;;;;;;;;;;;;;;4.66;63.86;95524.34;5046268;28;20012;-78
2021/12/14 09:07:58;;;;;;;;;;;;;;;4.65;64.68;95522.72;5044405;28;19927;-78
2021/12/14 09:10:24;;;;;;;;;;;;;;;4.65;64.63;95522.72;5045205;28;20428;-78
2021/12/14 09:12:50;;;;;;;;;;;;;;;4.77;64.11;95517.94;5045321;28;19927;-78
2021/12/14 09:15:24;;;;;;;;;;;;;;;4.88;63.99;95512.34;5042251;28;19920;-78
2021/12/14 09:17:49;;;;;;;;;;;;;;;5.01;63.98;95517.66;5044778;28;19947;-78
2021/12/14 09:20:16;;;;;;;;;;;;;;;4.96;63.43;95519.19;5028094;28;19916;-78
2021/12/14 09:22:43;;;;;;;;;;;;;;;5.06;63.14;95519.72;5041021;28;19933;-80
2021/12/14 09:25:10;;;;;;;42.70;23.60;;;;;;;5.07;63.10;95518.72;5046463;28;19928;-77
2021/12/14 09:27:36;;;;;;;40.63;22.42;;;;;;;5.10;63.56;95516.59;5038652;28;20033;-81
2021/12/14 09:30:04;;;;;;;51.75;32.95;;;;;;;5.19;63.59;95514.69;5021639;28;20064;-77
2021/12/14 09:32:30;;;;;;;48.25;28.70;;;;;;;5.31;63.59;95504.72;5038175;28;20047;-77
2021/12/14 09:34:56;;;;;;;45.67;26.05;;;;;;;5.37;63.09;95501.41;5055572;28;20040;-76
2021/12/14 09:37:21;;;;;;;94.55;48.40;;;;;;;5.46;63.49;95504.66;5038615;28;20075;-76
2021/12/14 09:39:49;;;;;;;66.35;37.90;;;;;;;5.58;61.71;95500.63;5041741;28;20025;-77
2021/12/14 09:42:19;;;;;;;69.05;39.78;;;;;;;5.67;63.01;95499.50;5041877;28;20029;-76
2021/12/14 09:44:45;;;;;;;69.40;41.50;;;;;;;5.70;61.59;95492.22;5023355;28;20040;-76
2021/12/14 09:47:13;;;;;;;43.40;30.80;;;;;;;5.78;61.66;95487.91;5041519;28;20087;-77
2021/12/14 09:49:39;;;;;;;53.88;31.90;;;;;;;5.82;60.87;95482.19;5042638;28;20089;-76
2021/12/14 09:52:20;;;;;;;17.90;13.93;;;;;;;5.80;60.01;95480.78;5040420;28;20029;-76
2021/12/14 09:54:45;;;;;;;22.27;14.10;;;;;;;5.72;60.94;95494.63;5041619;28;20037;-76
2021/12/14 09:57:23;;;;;;;29.10;20.27;;;;;;;5.81;60.30;95480.59;5039748;28;20055;-76
2021/12/14 09:59:51;;;;;;;29.75;18.55;;;;;;;5.77;61.62;95487.13;5023645;28;20041;-76
2021/12/14 10:02:31;;;;;;;27.13;17.25;;;;;;;5.77;61.73;95487.13;5042537;28;20029;-77
2021/12/14 10:05:03;;;;;;;22.15;15.63;;;;;;;5.81;59.99;95479.78;5040841;28;20390;-77
2021/12/14 10:07:28;;;;;;;28.85;18.80;;;;;;;5.75;60.48;95485.72;5037743;28;20197;-76
2021/12/14 10:09:58;;;;;;;32.65;21.45;;;;;;;5.77;60.99;95487.13;5040112;28;20025;-77
2021/12/14 10:14:59;;;;;;;34.20;19.92;;;;;;;5.87;59.97;95477.28;5024561;28;20042;-77
2021/12/14 10:17:26;;;;;;;37.55;21.88;;;;;;;5.86;60.55;95472.31;5021072;28;20034;-77
2021/12/14 10:19:51;;;;;;;25.27;15.32;;;;;;;5.84;60.72;95476.84;5037011;28;20045;-77
2021/12/14 10:22:24;;;;;;;21.10;15.52;;;;;;;5.88;61.88;95478.09;5033969;28;20037;-76
2021/12/14 10:24:54;;;;;;;48.92;24.25;;;;;;;5.88;61.60;95473.72;5036742;28;20127;-77
2021/12/14 10:27:21;;;;;;;22.27;14.15;;;;;;;5.92;60.97;95474.97;5052662;28;20032;-76
2021/12/14 10:29:49;;;;;;;30.52;16.95;;;;;;;5.91;61.17;95470.00;5019345;28;20414;-77
2021/12/14 10:32:19;;;;;;;23.55;15.68;;;;;;;5.96;60.08;95468.44;5037289;28;20033;-77
2021/12/14 10:34:47;;;;;;;46.90;27.30;;;;;;;5.88;61.22;95471.13;5037374;28;20037;-77
2021/12/14 10:37:21;;;;;;;26.00;18.58;;;;;;;6.01;60.85;95468.66;5038183;28;20575;-77
2021/12/14 10:45:24;;;;;;;45.22;29.60;;;;;;;6.35;60.42;95474.91;5038173;28;20119;-77
2021/12/14 10:47:53;;;;;;;35.58;24.00;;;;;;;6.31;59.29;95471.88;5037734;28;20025;-77
2021/12/14 10:50:26;;;;;;;32.47;20.88;;;;;;;6.30;58.79;95465.09;5021679;28;20544;-77
2021/12/14 10:52:53;;;;;;;30.65;19.80;;;;;;;6.28;59.76;95458.53;5037253;28;20486;-77
2021/12/14 10:55:35;;;;;;;20.48;14.60;;;;;;;6.32;59.63;95462.34;5036566;28;20048;-76
2021/12/14 10:58:04;;;;;;;20.27;14.82;;;;;;;6.26;59.41;95469.06;5038237;28;20038;-76
2021/12/14 11:03:10;;;;;;;17.05;13.65;;;;;;;6.09;60.47;95461.78;5055953;22;20140;-76
2021/12/14 11:05:36;;;;;;;19.23;12.77;;;;;;;5.99;59.21;95457.72;5037942;28;20049;-76
2021/12/14 11:08:02;;;;;;;17.38;12.93;;;;;;;5.82;60.86;95453.81;5036902;28;20048;-77
2021/12/14 11:10:34;;;;;;;29.48;16.40;;;;;;;5.81;61.09;95449.63;5036976;28;20064;-78
2021/12/14 11:13:06;;;;;;;28.05;17.95;;;;;;;5.82;60.60;95448.63;5037598;28;20036;-77
2021/12/14 11:15:35;;;;;;;23.50;15.43;;;;;;;5.71;60.40;95452.53;5037388;28;20037;-77
2021/12/14 11:18:10;;;;;;;25.90;18.95;;;;;;;5.76;60.77;95453.75;5039159;28;20493;-77
2021/12/14 11:21:01;;;;;;;34.22;23.00;;;;;;;5.66;61.01;95447.13;5037260;28;20396;-77
2021/12/14 11:23:32;;;;;;;58.13;30.55;;;;;;;5.65;62.23;95448.09;5045941;28;20033;-79
2021/12/14 11:26:09;;;;;;;64.78;38.83;;;;;;;5.59;62.03;95442.91;5040637;28;20032;-77
2021/12/14 11:28:40;;;;;;;48.90;32.05;;;;;;;5.62;62.28;95442.53;5043756;28;20043;-78
2021/12/14 11:31:22;;;;;;;42.53;28.33;;;;;;;5.57;62.42;95448.25;5022524;28;20055;-78
2021/12/14 11:33:52;;;;;;;39.75;25.67;;;;;;;5.51;61.74;95436.06;5048719;28;20037;-78
2021/12/14 11:36:34;;;;;;;38.97;24.58;;;;;;;5.57;62.05;95443.09;5041117;28;20108;-78
2021/12/14 11:39:05;;;;;;;44.30;25.88;;;;;;;5.51;61.83;95446.38;5046626;28;20040;-78
2021/12/14 11:41:38;;;;;;;27.02;17.77;;;;;;;5.50;61.45;95436.25;5047852;28;20076;-78
2021/12/14 11:44:08;;;;;;;38.63;28.17;;;;;;;5.62;60.86;95443.31;5046297;28;20434;-79
2021/12/14 11:46:45;;;;;;;50.60;36.08;;;;;;;5.85;61.44;95437.13;5042636;28;20487;-79
2021/12/14 11:49:11;;;;;;;67.93;44.37;;;;;;;6.00;59.90;95441.25;5046195;28;20769;-79
2021/12/14 11:51:36;;;;;;;42.00;30.97;;;;;;;6.11;59.53;95441.75;5046621;28;20417;-77
2021/12/14 11:54:05;;;;;;;49.90;32.17;;;;;;;6.10;60.34;95434.97;5043847;28;20409;-79
2021/12/14 11:56:33;;;;;;;33.28;24.52;;;;;;;6.24;58.21;95441.84;5042475;28;20422;-79
2021/12/14 11:59:04;;;;;;;40.72;29.40;;;;;;;6.26;59.22;95439.84;5066793;28;20853;-79
2021/12/14 12:01:55;;;;;;;51.35;34.22;;;;;;;6.35;59.00;95441.31;5044484;28;20540;-78
2021/12/14 12:04:24;;;;;;;58.43;40.40;;;;;;;6.36;58.87;95434.38;5048312;28;20504;-78
2021/12/14 12:09:35;;;;;;;61.38;42.60;;;;;;;6.44;58.51;95432.41;5027149;28;20457;-78
2021/12/14 12:12:04;;;;;;;67.37;44.63;;;;;;;6.45;58.06;95434.00;5051179;28;20420;-78
2021/12/14 12:14:51;;;;;;;55.15;35.97;;;;;;;6.45;58.58;95434.00;5045509;28;20413;-78
2021/12/14 12:17:23;;;;;;;59.40;40.15;;;;;;;6.53;59.09;95427.91;5046442;28;20385;-78
2021/12/14 12:19:57;;;;;;;58.88;40.70;;;;;;;6.50;58.41;95431.63;5045234;28;20400;-78
2021/12/14 12:22:23;;;;;;;53.25;36.47;;;;;;;6.37;58.65;95425.63;5043811;28;20397;-78
2021/12/14 12:24:50;;;;;;;57.08;38.38;;;;;;;6.41;58.15;95432.78;5033437;28;20405;-78
2021/12/14 12:27:35;;;;;;;49.08;34.40;;;;;;;6.42;58.52;95426.63;5043511;28;20424;-78
2021/12/14 12:30:06;;;;;;;57.47;38.05;;;;;;;6.51;58.25;95428.09;5049665;28;20404;-78
2021/12/14 12:32:35;;;;;;;56.00;40.88;;;;;;;6.48;57.76;95428.44;5039455;28;20822;-78
2021/12/14 12:35:01;;;;;;;68.35;45.00;;;;;;;6.47;58.04;95431.22;5023698;28;20428;-78
2021/12/14 12:37:40;;;;;;;69.68;49.83;;;;;;;6.52;58.05;95424.53;5022824;28;20439;-77
2021/12/14 12:40:09;;;;;;;57.17;39.70;;;;;;;6.42;58.49;95429.22;5007181;28;20445;-78
2021/12/14 12:42:35;;;;;;;65.57;44.30;;;;;;;6.40;58.40;95426.03;5055988;28;20416;-78
2021/12/14 12:45:03;;;;;;;55.80;35.88;;;;;;;6.47;57.64;95426.06;5021669;28;20397;-78
2021/12/14 12:47:29;;;;;;;67.80;46.10;;;;;;;6.45;58.20;95428.84;5039725;28;20397;-78
2021/12/14 12:49:58;;;;;;;66.87;45.60;;;;;;;6.49;58.65;95429.25;5039609;28;20428;-77
2021/12/14 12:52:30;;;;;;;58.80;43.25;;;;;;;6.48;57.52;95428.44;5041318;28;20481;-78
2021/12/14 12:55:12;;;;;;;58.72;41.70;;;;;;;6.54;57.40;95422.53;5046425;28;20477;-80
2021/12/14 12:57:55;;;;;;;73.15;47.90;;;;;;;6.46;58.63;95427.84;5065490;28;20919;-77
2021/12/14 13:00:37;;;;;;;93.70;67.72;;;;;;;6.42;58.72;95429.22;5041568;28;20425;-78
2021/12/14 13:03:13;;;;;;;149.13;120.03;;;;;;;6.41;58.06;95425.03;5041044;28;20410;-77
2021/12/14 13:05:51;;;;;;;126.88;97.03;;;;;;;6.45;57.69;95439.16;5039526;28;20433;-76
2021/12/14 13:08:21;;;;;;;133.55;99.13;;;;;;;6.49;58.19;95435.22;5037706;28;20892;-76
2021/12/14 13:10:51;;;;;;;144.97;101.87;;;;;;;6.39;58.71;95424.44;5041070;28;20431;-77
2021/12/14 13:13:18;;;;;;;115.55;74.82;;;;;;;6.41;58.89;95427.63;5037881;28;20505;-77
2021/12/14 13:15:44;;;;;;;90.82;60.55;;;;;;;6.47;58.58;95432.03;5044412;28;20753;-77
2021/12/14 13:18:21;;;;;;;86.17;56.17;;;;;;;6.40;58.82;95425.25;5040120;28;20409;-77
2021/12/14 13:20:48;;;;;;;85.85;57.22;;;;;;;6.48;58.48;95425.88;5037943;28;20472;-76